Time,TemperatureF,DewpointF,PressureIn,WindDirection,WindDirectionDegrees,WindSpeedMPH,WindSpeedGustMPH,Humidity,HourlyPrecipIn,Conditions,Clouds,dailyrainin,SoftwareType,DateUTC
2013-06-13 00:01:00,65.1,62.1,-100.00,SE,126,0.0,0.0,90,0.00,,,0.00,meteohub,2013-06-13 04:01:00,
2013-06-13 00:02:00,65.1,62.1,-100.00,SE,126,0.0,0.0,90,0.00,,,0.00,meteohub,2013-06-13 04:02:00,
2013-06-13 00:07:00,64.9,61.7,-100.00,SE,126,0.0,0.0,89,0.00,,,0.00,meteohub,2013-06-13 04:07:00,
2013-06-13 00:12:00,64.9,61.7,-100.00,SE,126,0.0,1.0,89,0.00,,,0.00,meteohub,2013-06-13 04:12:00,
2013-06-13 00:17:00,64.9,61.9,-100.00,SSE,165,0.0,1.0,90,0.00,,,0.00,meteohub,2013-06-13 04:17:00,
2013-06-13 00:22:00,65.1,62.4,-100.00,SSE,165,0.0,1.0,91,0.00,,,0.00,meteohub,2013-06-13 04:22:00,
2013-06-13 00:27:00,65.5,62.8,-100.00,SW,214,0.0,1.0,91,0.00,,,0.00,meteohub,2013-06-13 04:27:00,
2013-06-13 00:32:00,65.5,62.8,-100.00,WSW,242,1.0,0.0,91,0.00,,,0.00,meteohub,2013-06-13 04:32:00,
2013-06-13 00:37:00,65.5,62.4,-100.00,West,264,0.0,1.0,90,0.00,,,0.00,meteohub,2013-06-13 04:37:00,
2013-06-13 00:42:00,65.1,62.1,-100.00,West,259,0.0,1.0,90,0.00,,,0.00,meteohub,2013-06-13 04:42:00,
2013-06-13 00:47:00,65.1,61.9,-100.00,West,260,1.0,1.0,89,0.00,,,0.00,meteohub,2013-06-13 04:47:00,
2013-06-13 00:52:00,64.9,61.7,-100.00,West,261,0.0,2.0,89,0.00,,,0.00,meteohub,2013-06-13 04:52:00,
2013-06-13 00:57:00,64.8,61.7,-100.00,West,261,0.0,2.0,90,0.00,,,0.00,meteohub,2013-06-13 04:57:00,
2013-06-13 01:02:00,64.2,61.0,-100.00,West,261,0.0,2.0,89,0.00,,,0.00,meteohub,2013-06-13 05:02:00,
2013-06-13 01:07:00,64.0,60.8,-100.00,West,261,0.0,1.0,89,0.00,,,0.00,meteohub,2013-06-13 05:07:00,
2013-06-13 01:12:00,63.9,60.6,-100.00,West,259,0.0,1.0,89,0.00,,,0.00,meteohub,2013-06-13 05:12:00,
2013-06-13 01:17:00,63.9,60.8,-100.00,West,260,0.0,1.0,90,0.00,,,0.00,meteohub,2013-06-13 05:17:00,
2013-06-13 01:22:00,63.7,60.6,-100.00,West,259,0.0,0.0,90,0.00,,,0.00,meteohub,2013-06-13 05:22:00,
2013-06-13 01:27:00,63.7,61.0,-100.00,West,259,0.0,0.0,91,0.00,,,0.00,meteohub,2013-06-13 05:27:00,
2013-06-13 01:32:00,63.7,61.0,-100.00,West,259,0.0,1.0,91,0.00,,,0.00,meteohub,2013-06-13 05:32:00,
2013-06-13 01:37:00,63.5,60.8,-100.00,West,260,0.0,1.0,91,0.00,,,0.00,meteohub,2013-06-13 05:37:00,
2013-06-13 01:42:00,63.5,61.2,-100.00,West,260,0.0,1.0,92,0.00,,,0.00,meteohub,2013-06-13 05:42:00,
2013-06-13 01:47:00,63.3,60.6,-100.00,West,259,0.0,1.0,91,0.00,,,0.00,meteohub,2013-06-13 05:47:00,
2013-06-13 01:52:00,63.3,60.6,-100.00,West,260,0.0,1.0,91,0.00,,,0.00,meteohub,2013-06-13 05:52:00,
2013-06-13 01:57:00,63.1,60.1,-100.00,West,261,0.0,1.0,90,0.00,,,0.00,meteohub,2013-06-13 05:57:00,
2013-06-13 02:02:00,63.0,59.9,-100.00,NW,314,0.0,1.0,90,0.00,,,0.00,meteohub,2013-06-13 06:02:00,
2013-06-13 02:07:00,63.0,60.3,-100.00,North,1,0.0,1.0,91,0.00,,,0.00,meteohub,2013-06-13 06:07:00,
2013-06-13 02:12:00,63.0,60.3,-100.00,NNW,337,0.0,1.0,91,0.00,,,0.00,meteohub,2013-06-13 06:12:00,
2013-06-13 02:17:00,62.8,59.7,-100.00,NNW,337,0.0,1.0,90,0.00,,,0.00,meteohub,2013-06-13 06:17:00,
2013-06-13 02:22:00,62.8,59.7,-100.00,NNW,337,0.0,1.0,90,0.00,,,0.00,meteohub,2013-06-13 06:22:00,
2013-06-13 02:27:00,62.8,59.7,-100.00,NNW,337,0.0,0.0,90,0.00,,,0.00,meteohub,2013-06-13 06:27:00,
2013-06-13 02:32:00,62.8,60.1,-100.00,NNW,337,0.0,0.0,91,0.00,,,0.00,meteohub,2013-06-13 06:32:00,
2013-06-13 02:37:00,62.8,60.1,-100.00,NNW,337,0.0,1.0,91,0.00,,,0.00,meteohub,2013-06-13 06:37:00,
2013-06-13 02:42:00,62.8,60.1,-100.00,NNW,336,0.0,1.0,91,0.00,,,0.00,meteohub,2013-06-13 06:42:00,
2013-06-13 02:47:00,62.8,60.1,-100.00,NNW,337,0.0,1.0,91,0.00,,,0.00,meteohub,2013-06-13 06:47:00,
2013-06-13 02:53:00,62.8,60.1,-100.00,NNW,337,0.0,1.0,91,0.00,,,0.00,meteohub,2013-06-13 06:53:00,
2013-06-13 02:58:00,62.8,60.1,-100.00,North,359,0.0,0.0,91,0.00,,,0.00,meteohub,2013-06-13 06:58:00,
2013-06-13 03:03:00,62.8,60.1,-100.00,North,354,0.0,1.0,91,0.00,,,0.00,meteohub,2013-06-13 07:03:00,
2013-06-13 03:08:00,62.8,60.4,-100.00,NNW,341,0.0,1.0,92,0.00,,,0.00,meteohub,2013-06-13 07:08:00,
2013-06-13 03:13:00,62.8,60.1,-100.00,NNW,336,0.0,1.0,91,0.00,,,0.00,meteohub,2013-06-13 07:13:00,
2013-06-13 03:18:00,62.8,60.1,-100.00,SE,140,0.0,2.0,91,0.00,,,0.00,meteohub,2013-06-13 07:18:00,
2013-06-13 03:23:00,62.8,60.4,-100.00,SE,140,0.0,2.0,92,0.00,,,0.00,meteohub,2013-06-13 07:23:00,
2013-06-13 03:28:00,62.8,60.4,-100.00,SE,140,0.0,2.0,92,0.00,,,0.00,meteohub,2013-06-13 07:28:00,
2013-06-13 03:33:00,62.6,60.3,-100.00,SE,139,0.0,2.0,92,0.00,,,0.00,meteohub,2013-06-13 07:33:00,
2013-06-13 03:38:00,62.6,60.3,-100.00,SE,140,0.0,0.0,92,0.00,,,0.00,meteohub,2013-06-13 07:38:00,
2013-06-13 03:43:00,62.4,60.1,-100.00,SE,140,0.0,1.0,92,0.00,,,0.00,meteohub,2013-06-13 07:43:00,
2013-06-13 03:48:00,62.4,60.4,-100.00,SE,140,0.0,1.0,93,0.00,,,0.00,meteohub,2013-06-13 07:48:00,
2013-06-13 03:53:00,62.4,60.4,-100.00,SE,139,0.0,1.0,93,0.00,,,0.00,meteohub,2013-06-13 07:53:00,
2013-06-13 03:58:00,62.4,60.1,-100.00,SE,139,0.0,1.0,92,0.00,,,0.00,meteohub,2013-06-13 07:58:00,
2013-06-13 04:03:00,62.4,60.1,-100.00,SE,139,0.0,1.0,92,0.00,,,0.00,meteohub,2013-06-13 08:03:00,
2013-06-13 04:08:00,62.4,60.1,-100.00,SE,138,0.0,1.0,92,0.00,,,0.00,meteohub,2013-06-13 08:08:00,
2013-06-13 04:13:00,62.2,59.9,-100.00,SE,138,0.0,1.0,92,0.00,,,0.00,meteohub,2013-06-13 08:13:00,
2013-06-13 04:18:00,62.2,59.9,-100.00,SE,138,0.0,1.0,92,0.00,,,0.00,meteohub,2013-06-13 08:18:00,
2013-06-13 04:23:00,62.2,60.3,-100.00,SE,139,0.0,1.0,93,0.00,,,0.00,meteohub,2013-06-13 08:23:00,
2013-06-13 04:28:00,62.2,60.3,-100.00,SE,138,0.0,1.0,93,0.00,,,0.00,meteohub,2013-06-13 08:28:00,
2013-06-13 04:33:00,62.2,60.3,-100.00,SE,138,0.0,1.0,93,0.00,,,0.00,meteohub,2013-06-13 08:33:00,
2013-06-13 04:38:00,62.1,60.1,-100.00,SE,136,0.0,1.0,93,0.00,,,0.00,meteohub,2013-06-13 08:38:00,
2013-06-13 04:43:00,62.1,60.1,-100.00,SE,137,0.0,1.0,93,0.00,,,0.00,meteohub,2013-06-13 08:43:00,
2013-06-13 04:48:00,62.1,60.1,-100.00,SE,136,0.0,1.0,93,0.00,,,0.00,meteohub,2013-06-13 08:48:00,
2013-06-13 04:53:00,62.1,60.1,-100.00,SE,136,0.0,1.0,93,0.00,,,0.00,meteohub,2013-06-13 08:53:00,
2013-06-13 04:58:00,62.1,60.1,-100.00,SE,138,0.0,1.0,93,0.00,,,0.00,meteohub,2013-06-13 08:58:00,
2013-06-13 05:03:00,62.1,60.1,-100.00,SE,138,0.0,1.0,93,0.00,,,0.00,meteohub,2013-06-13 09:03:00,
2013-06-13 05:08:00,62.1,60.1,-100.00,SE,138,0.0,1.0,93,0.00,,,0.00,meteohub,2013-06-13 09:08:00,
2013-06-13 05:13:00,62.1,60.3,-100.00,SE,137,0.0,1.0,94,0.00,,,0.00,meteohub,2013-06-13 09:13:00,
2013-06-13 05:18:00,62.2,60.4,-100.00,SSW,195,0.0,0.0,94,0.00,,,0.00,meteohub,2013-06-13 09:18:00,
2013-06-13 05:23:00,62.2,60.4,-100.00,SSW,196,0.0,1.0,94,0.00,,,0.00,meteohub,2013-06-13 09:23:00,
2013-06-13 05:28:00,62.2,60.4,-100.00,SSW,196,0.0,1.0,94,0.00,,,0.00,meteohub,2013-06-13 09:28:00,
2013-06-13 05:33:00,62.2,60.4,-100.00,SSW,195,0.0,1.0,94,0.00,,,0.00,meteohub,2013-06-13 09:33:00,
2013-06-13 05:38:00,62.2,60.4,-100.00,SSW,196,0.0,1.0,94,0.00,,,0.00,meteohub,2013-06-13 09:38:00,
2013-06-13 05:44:00,62.4,60.6,-100.00,SSW,196,0.0,1.0,94,0.00,,,0.00,meteohub,2013-06-13 09:44:00,
2013-06-13 05:49:00,62.4,60.6,-100.00,SSW,196,0.0,1.0,94,0.00,,,0.00,meteohub,2013-06-13 09:49:00,
2013-06-13 05:54:00,62.4,60.6,-100.00,SSW,196,0.0,1.0,94,0.00,,,0.00,meteohub,2013-06-13 09:54:00,
2013-06-13 05:59:00,62.4,61.0,-100.00,West,274,0.0,0.0,95,0.00,,,0.00,meteohub,2013-06-13 09:59:00,
2013-06-13 06:04:00,62.4,61.0,-100.00,West,274,0.0,0.0,95,0.01,,,0.01,meteohub,2013-06-13 10:04:00,
2013-06-13 06:09:00,62.4,61.0,-100.00,NW,326,0.0,1.0,95,0.02,,,0.02,meteohub,2013-06-13 10:09:00,
2013-06-13 06:14:00,62.4,61.0,-100.00,NW,325,0.0,1.0,95,0.03,,,0.04,meteohub,2013-06-13 10:14:00,
2013-06-13 06:19:00,62.2,60.8,-100.00,NNW,348,0.0,1.0,95,0.04,,,0.05,meteohub,2013-06-13 10:19:00,
2013-06-13 06:24:00,61.9,60.1,-100.00,WNW,292,2.0,2.0,94,0.05,,,0.05,meteohub,2013-06-13 10:24:00,
2013-06-13 06:29:00,61.5,59.7,-100.00,WNW,285,1.0,2.0,94,0.06,,,0.06,meteohub,2013-06-13 10:29:00,
2013-06-13 06:34:00,61.3,59.9,-100.00,WNW,291,0.0,2.0,95,0.09,,,0.09,meteohub,2013-06-13 10:34:00,
2013-06-13 06:39:00,61.2,59.7,-100.00,NW,317,1.0,2.0,95,0.12,,,0.12,meteohub,2013-06-13 10:39:00,
2013-06-13 06:44:00,61.0,59.5,-100.00,NW,323,3.0,3.0,95,0.16,,,0.16,meteohub,2013-06-13 10:44:00,
2013-06-13 06:49:00,61.0,59.5,-100.00,NW,312,2.0,4.0,95,0.21,,,0.19,meteohub,2013-06-13 10:49:00,
2013-06-13 06:54:00,60.6,59.2,-100.00,West,273,1.0,7.0,95,0.22,,,0.22,meteohub,2013-06-13 10:54:00,
2013-06-13 06:59:00,60.6,59.5,-100.00,WNW,295,2.0,7.0,96,0.22,,,0.24,meteohub,2013-06-13 10:59:00,
2013-06-13 07:04:00,60.4,59.4,-100.00,North,349,0.0,7.0,96,0.22,,,0.25,meteohub,2013-06-13 11:04:00,
2013-06-13 07:09:00,60.4,59.4,-100.00,WNW,290,0.0,5.0,96,0.23,,,0.26,meteohub,2013-06-13 11:09:00,
2013-06-13 07:14:00,60.4,59.4,-100.00,WNW,297,0.0,3.0,96,0.23,,,0.27,meteohub,2013-06-13 11:14:00,
2013-06-13 07:19:00,60.4,59.4,-100.00,WNW,291,0.0,2.0,96,0.22,,,0.27,meteohub,2013-06-13 11:19:00,
2013-06-13 07:24:00,60.4,59.4,-100.00,WNW,303,0.0,2.0,96,0.22,,,0.28,meteohub,2013-06-13 11:24:00,
2013-06-13 07:29:00,60.4,59.4,-100.00,NW,310,1.0,3.0,96,0.24,,,0.30,meteohub,2013-06-13 11:29:00,
2013-06-13 07:34:00,60.4,59.4,-100.00,WNW,300,2.0,3.0,96,0.22,,,0.31,meteohub,2013-06-13 11:34:00,
2013-06-13 07:39:00,60.3,59.2,-100.00,NW,319,0.0,5.0,96,0.19,,,0.33,meteohub,2013-06-13 11:39:00,
2013-06-13 07:45:00,60.3,59.2,-100.00,North,6,1.0,5.0,96,0.19,,,0.37,meteohub,2013-06-13 11:45:00,
2013-06-13 07:50:00,59.7,58.6,-100.00,WNW,283,1.0,5.0,96,0.18,,,0.39,meteohub,2013-06-13 11:50:00,
2013-06-13 07:55:00,59.5,58.5,-100.00,WNW,292,3.0,6.0,96,0.17,,,0.40,meteohub,2013-06-13 11:55:00,
2013-06-13 08:00:00,59.4,58.3,-100.00,West,275,0.0,6.0,96,0.18,,,0.42,meteohub,2013-06-13 12:00:00,
2013-06-13 08:05:00,59.2,58.1,-100.00,North,356,0.0,5.0,96,0.19,,,0.44,meteohub,2013-06-13 12:05:00,
2013-06-13 08:10:00,59.0,57.9,-100.00,WNW,298,2.0,6.0,96,0.20,,,0.46,meteohub,2013-06-13 12:10:00,
2013-06-13 08:15:00,58.8,57.7,-100.00,North,356,4.0,7.0,96,0.24,,,0.48,meteohub,2013-06-13 12:15:00,
2013-06-13 08:20:00,58.8,57.7,-100.00,NW,319,1.0,8.0,96,0.27,,,0.55,meteohub,2013-06-13 12:20:00,
2013-06-13 08:25:00,58.6,57.6,-100.00,ENE,59,2.0,10.0,96,0.32,,,0.61,meteohub,2013-06-13 12:25:00,
2013-06-13 08:30:00,58.5,57.6,-100.00,NW,322,1.0,10.0,97,0.32,,,0.62,meteohub,2013-06-13 12:30:00,
2013-06-13 08:35:00,58.5,57.6,-100.00,WSW,243,2.0,10.0,97,0.33,,,0.65,meteohub,2013-06-13 12:35:00,
2013-06-13 08:40:00,58.5,57.6,-100.00,West,259,2.0,8.0,97,0.33,,,0.67,meteohub,2013-06-13 12:40:00,
2013-06-13 08:45:00,58.5,57.6,-100.00,NW,315,1.0,7.0,97,0.30,,,0.68,meteohub,2013-06-13 12:45:00,
2013-06-13 08:50:00,58.5,57.6,-100.00,North,6,0.0,7.0,97,0.30,,,0.70,meteohub,2013-06-13 12:50:00,
2013-06-13 08:55:00,58.5,57.6,-100.00,NNW,333,8.0,8.0,97,0.30,,,0.71,meteohub,2013-06-13 12:55:00,
2013-06-13 09:00:00,58.5,57.6,-100.00,NNW,341,3.0,8.0,97,0.30,,,0.72,meteohub,2013-06-13 13:00:00,
2013-06-13 09:05:00,58.5,57.6,-100.00,West,260,3.0,9.0,97,0.28,,,0.73,meteohub,2013-06-13 13:05:00,
2013-06-13 09:10:00,58.5,57.6,-100.00,West,267,1.0,9.0,97,0.27,,,0.74,meteohub,2013-06-13 13:10:00,
2013-06-13 09:15:00,58.5,57.6,-100.00,NW,320,1.0,7.0,97,0.23,,,0.74,meteohub,2013-06-13 13:15:00,
2013-06-13 09:20:00,58.5,57.6,-100.00,NNW,342,4.0,9.0,97,0.18,,,0.75,meteohub,2013-06-13 13:20:00,
2013-06-13 09:25:00,58.3,57.4,-100.00,NNE,30,1.0,9.0,97,0.16,,,0.78,meteohub,2013-06-13 13:25:00,
2013-06-13 09:30:00,58.3,57.4,-100.00,NW,312,6.0,9.0,97,0.14,,,0.78,meteohub,2013-06-13 13:30:00,
2013-06-13 09:35:00,58.3,57.4,-100.00,NW,308,3.0,9.0,97,0.14,,,0.80,meteohub,2013-06-13 13:35:00,
2013-06-13 09:40:00,57.9,57.0,-100.00,NNW,330,2.0,10.0,97,0.13,,,0.81,meteohub,2013-06-13 13:40:00,
2013-06-13 09:45:00,57.9,57.0,-100.00,NNE,15,0.0,10.0,97,0.11,,,0.81,meteohub,2013-06-13 13:45:00,
2013-06-13 09:50:00,57.9,57.0,-100.00,WNW,288,2.0,10.0,97,0.11,,,0.82,meteohub,2013-06-13 13:50:00,
2013-06-13 09:55:00,58.1,57.2,-100.00,NNE,20,1.0,9.0,97,0.10,,,0.82,meteohub,2013-06-13 13:55:00,
2013-06-13 10:00:00,58.3,57.4,-100.00,West,277,3.0,9.0,97,0.11,,,0.83,meteohub,2013-06-13 14:00:00,
2013-06-13 10:05:00,58.3,57.4,-100.00,West,276,1.0,9.0,97,0.10,,,0.83,meteohub,2013-06-13 14:05:00,
2013-06-13 10:10:00,58.3,57.4,-100.00,NW,307,2.0,9.0,97,0.10,,,0.84,meteohub,2013-06-13 14:10:00,
2013-06-13 10:15:00,58.3,57.4,-100.00,NNW,345,4.0,9.0,97,0.10,,,0.85,meteohub,2013-06-13 14:15:00,
2013-06-13 10:20:00,58.3,57.4,-100.00,West,271,2.0,9.0,97,0.12,,,0.88,meteohub,2013-06-13 14:20:00,
2013-06-13 10:25:00,58.3,57.4,-100.00,NW,308,0.0,9.0,97,0.10,,,0.88,meteohub,2013-06-13 14:25:00,
2013-06-13 10:30:00,58.3,57.4,-100.00,West,279,3.0,9.0,97,0.09,,,0.88,meteohub,2013-06-13 14:30:00,
2013-06-13 10:35:00,58.5,57.6,-100.00,NE,46,2.0,8.0,97,0.09,,,0.89,meteohub,2013-06-13 14:35:00,
2013-06-13 10:40:00,58.5,57.6,-100.00,SSW,213,1.0,8.0,97,0.08,,,0.89,meteohub,2013-06-13 14:40:00,
2013-06-13 10:45:00,58.5,57.6,-100.00,WNW,294,3.0,8.0,97,0.07,,,0.89,meteohub,2013-06-13 14:45:00,
2013-06-13 10:50:00,58.5,57.6,-100.00,NNW,329,4.0,8.0,97,0.07,,,0.89,meteohub,2013-06-13 14:50:00,
2013-06-13 10:55:00,58.5,57.6,-100.00,North,353,4.0,8.0,97,0.07,,,0.89,meteohub,2013-06-13 14:55:00,
2013-06-13 11:00:00,58.5,57.6,-100.00,NNE,28,3.0,8.0,97,0.07,,,0.90,meteohub,2013-06-13 15:00:00,
2013-06-13 11:05:00,58.5,57.6,-100.00,WNW,302,4.0,8.0,97,0.07,,,0.90,meteohub,2013-06-13 15:05:00,
2013-06-13 11:10:00,58.5,57.4,-100.00,ENE,59,7.0,7.0,96,0.06,,,0.90,meteohub,2013-06-13 15:10:00,
2013-06-13 11:15:00,58.3,57.2,-100.00,NNW,348,4.0,9.0,96,0.05,,,0.90,meteohub,2013-06-13 15:15:00,
2013-06-13 11:20:00,58.3,57.2,-100.00,NW,306,4.0,9.0,96,0.02,,,0.90,meteohub,2013-06-13 15:20:00,
2013-06-13 11:26:00,57.9,56.8,-100.00,NNW,328,5.0,9.0,96,0.03,,,0.91,meteohub,2013-06-13 15:26:00,
2013-06-13 11:31:00,57.6,56.5,-100.00,NW,309,4.0,10.0,96,0.03,,,0.91,meteohub,2013-06-13 15:31:00,
2013-06-13 11:36:00,57.6,56.5,-100.00,NW,322,5.0,10.0,96,0.02,,,0.91,meteohub,2013-06-13 15:36:00,
2013-06-13 11:41:00,57.4,56.3,-100.00,WSW,247,2.0,9.0,96,0.02,,,0.91,meteohub,2013-06-13 15:41:00,
2013-06-13 11:46:00,57.6,56.7,-100.00,North,1,8.0,9.0,97,0.02,,,0.91,meteohub,2013-06-13 15:46:00,
2013-06-13 11:51:00,57.6,56.7,-100.00,NE,41,2.0,9.0,97,0.02,,,0.91,meteohub,2013-06-13 15:51:00,
2013-06-13 11:56:00,57.7,56.8,-100.00,WNW,291,4.0,10.0,97,0.02,,,0.91,meteohub,2013-06-13 15:56:00,
2013-06-13 12:01:00,57.9,57.0,-100.00,NE,36,1.0,11.0,97,0.01,,,0.91,meteohub,2013-06-13 16:01:00,
2013-06-13 12:06:00,58.1,57.2,-100.00,North,350,3.0,11.0,97,0.01,,,0.91,meteohub,2013-06-13 16:06:00,
2013-06-13 12:11:00,58.3,57.4,-100.00,WNW,297,4.0,11.0,97,0.01,,,0.91,meteohub,2013-06-13 16:11:00,
2013-06-13 12:16:00,58.3,57.4,-100.00,North,354,3.0,13.0,97,0.01,,,0.91,meteohub,2013-06-13 16:16:00,
2013-06-13 12:21:00,58.5,57.6,-100.00,NW,316,8.0,13.0,97,0.00,,,0.91,meteohub,2013-06-13 16:21:00,
2013-06-13 12:26:00,58.5,57.6,-100.00,NW,304,6.0,13.0,97,0.00,,,0.91,meteohub,2013-06-13 16:26:00,
2013-06-13 12:31:00,58.5,57.6,-100.00,WNW,285,3.0,12.0,97,0.00,,,0.91,meteohub,2013-06-13 16:31:00,
2013-06-13 12:36:00,58.5,57.4,-100.00,WNW,299,5.0,12.0,96,0.00,,,0.91,meteohub,2013-06-13 16:36:00,
2013-06-13 12:41:00,58.5,57.4,-100.00,NNW,337,9.0,11.0,96,0.00,,,0.91,meteohub,2013-06-13 16:41:00,
2013-06-13 12:46:00,58.6,57.6,-100.00,NNW,335,3.0,11.0,96,0.00,,,0.91,meteohub,2013-06-13 16:46:00,
2013-06-13 12:51:00,58.6,57.6,-100.00,NE,37,5.0,12.0,96,0.00,,,0.91,meteohub,2013-06-13 16:51:00,
2013-06-13 12:56:00,58.6,57.6,-100.00,NNW,336,4.0,15.0,96,0.00,,,0.91,meteohub,2013-06-13 16:56:00,
2013-06-13 13:01:00,58.6,57.6,-100.00,NNE,32,7.0,20.0,96,0.00,,,0.91,meteohub,2013-06-13 17:01:00,
2013-06-13 13:06:00,58.6,57.6,-100.00,NE,34,2.0,20.0,96,0.00,,,0.91,meteohub,2013-06-13 17:06:00,
2013-06-13 13:11:00,58.6,57.2,-100.00,NW,306,2.0,20.0,95,0.00,,,0.91,meteohub,2013-06-13 17:11:00,
2013-06-13 13:16:00,58.6,57.2,-100.00,WNW,301,3.0,10.0,95,0.00,,,0.91,meteohub,2013-06-13 17:16:00,
2013-06-13 13:21:00,58.6,57.6,-100.00,North,358,9.0,10.0,96,0.00,,,0.91,meteohub,2013-06-13 17:21:00,
2013-06-13 13:26:00,58.8,57.7,-100.00,North,355,4.0,10.0,96,0.00,,,0.91,meteohub,2013-06-13 17:26:00,
2013-06-13 13:31:00,58.8,57.4,-100.00,NNW,333,5.0,13.0,95,0.00,,,0.91,meteohub,2013-06-13 17:31:00,
2013-06-13 13:36:00,58.8,57.4,-100.00,NNE,14,10.0,13.0,95,0.00,,,0.91,meteohub,2013-06-13 17:36:00,
2013-06-13 13:41:00,58.8,57.4,-100.00,WNW,295,4.0,16.0,95,0.00,,,0.91,meteohub,2013-06-13 17:41:00,
2013-06-13 13:46:00,59.0,57.6,-100.00,NW,317,3.0,16.0,95,0.00,,,0.91,meteohub,2013-06-13 17:46:00,
2013-06-13 13:51:00,59.2,57.7,-100.00,NNW,347,3.0,13.0,95,0.00,,,0.91,meteohub,2013-06-13 17:51:00,
2013-06-13 13:56:00,59.2,57.7,-100.00,NW,317,5.0,13.0,95,0.00,,,0.91,meteohub,2013-06-13 17:56:00,
2013-06-13 14:01:00,59.4,57.9,-100.00,West,274,5.0,13.0,95,0.00,,,0.91,meteohub,2013-06-13 18:01:00,
2013-06-13 14:06:00,59.4,57.9,-100.00,ENE,61,3.0,14.0,95,0.00,,,0.91,meteohub,2013-06-13 18:06:00,
2013-06-13 14:11:00,59.5,58.1,-100.00,WNW,293,3.0,14.0,95,0.00,,,0.91,meteohub,2013-06-13 18:11:00,
2013-06-13 14:16:00,59.5,57.7,-100.00,NW,308,2.0,13.0,94,0.00,,,0.91,meteohub,2013-06-13 18:16:00,
2013-06-13 14:21:00,59.7,57.9,-100.00,NW,311,2.0,13.0,94,0.00,,,0.91,meteohub,2013-06-13 18:21:00,
2013-06-13 14:26:00,59.7,57.9,-100.00,NW,315,3.0,13.0,94,0.00,,,0.91,meteohub,2013-06-13 18:26:00,
2013-06-13 14:31:00,60.3,58.5,-100.00,West,266,3.0,13.0,94,0.00,,,0.91,meteohub,2013-06-13 18:31:00,
2013-06-13 14:36:00,61.0,59.2,-100.00,West,277,6.0,12.0,94,0.00,,,0.91,meteohub,2013-06-13 18:36:00,
2013-06-13 14:41:00,61.5,59.2,-100.00,WNW,300,7.0,10.0,92,0.00,,,0.91,meteohub,2013-06-13 18:41:00,
2013-06-13 14:46:00,62.4,59.7,-100.00,NNE,25,3.0,12.0,91,0.00,,,0.91,meteohub,2013-06-13 18:46:00,
2013-06-13 14:51:00,62.8,59.7,-100.00,NE,34,5.0,12.0,90,0.00,,,0.91,meteohub,2013-06-13 18:51:00,
2013-06-13 14:56:00,62.6,59.0,-100.00,NNE,30,5.0,13.0,88,0.00,,,0.91,meteohub,2013-06-13 18:56:00,
2013-06-13 15:01:00,62.8,59.2,-100.00,NW,315,5.0,13.0,88,0.00,,,0.91,meteohub,2013-06-13 19:01:00,
2013-06-13 15:06:00,62.2,58.6,-100.00,WNW,298,2.0,13.0,88,0.00,,,0.91,meteohub,2013-06-13 19:06:00,
2013-06-13 15:11:00,62.8,59.5,-100.00,NW,304,4.0,12.0,89,0.00,,,0.91,meteohub,2013-06-13 19:11:00,
2013-06-13 15:16:00,63.1,59.2,-100.00,ENE,62,4.0,11.0,87,0.00,,,0.91,meteohub,2013-06-13 19:16:00,
2013-06-13 15:21:00,63.3,58.8,-100.00,NW,321,4.0,9.0,85,0.00,,,0.91,meteohub,2013-06-13 19:21:00,
2013-06-13 15:26:00,63.7,59.0,-100.00,WNW,297,3.0,9.0,85,0.00,,,0.91,meteohub,2013-06-13 19:26:00,
2013-06-13 15:31:00,64.2,59.4,-100.00,NE,39,4.0,13.0,84,0.00,,,0.91,meteohub,2013-06-13 19:31:00,
2013-06-13 15:36:00,64.4,59.2,-100.00,WNW,302,4.0,13.0,83,0.00,,,0.91,meteohub,2013-06-13 19:36:00,
2013-06-13 15:42:00,64.8,59.5,-100.00,West,278,2.0,13.0,83,0.00,,,0.91,meteohub,2013-06-13 19:42:00,
2013-06-13 15:47:00,64.9,58.6,-100.00,NW,312,4.0,14.0,80,0.00,,,0.91,meteohub,2013-06-13 19:47:00,
2013-06-13 15:52:00,65.7,59.4,-100.00,WNW,288,5.0,14.0,80,0.00,,,0.91,meteohub,2013-06-13 19:52:00,
2013-06-13 15:57:00,66.0,60.1,-100.00,WSW,252,5.0,11.0,81,0.00,,,0.91,meteohub,2013-06-13 19:57:00,
2013-06-13 16:02:00,66.4,60.1,-100.00,SSE,166,2.0,11.0,80,0.00,,,0.91,meteohub,2013-06-13 20:02:00,
2013-06-13 16:07:00,66.4,59.7,-100.00,West,272,2.0,8.0,79,0.00,,,0.91,meteohub,2013-06-13 20:07:00,
2013-06-13 16:12:00,66.4,59.4,-100.00,NE,56,6.0,8.0,78,0.00,,,0.91,meteohub,2013-06-13 20:12:00,
2013-06-13 16:17:00,66.6,59.5,-100.00,East,99,4.0,9.0,78,0.00,,,0.91,meteohub,2013-06-13 20:17:00,
2013-06-13 16:22:00,66.7,60.1,-100.00,NW,304,4.0,9.0,79,0.00,,,0.91,meteohub,2013-06-13 20:22:00,
2013-06-13 16:27:00,66.7,60.1,-100.00,NNW,342,3.0,9.0,79,0.00,,,0.91,meteohub,2013-06-13 20:27:00,
2013-06-13 16:32:00,66.9,59.9,-100.00,WSW,249,2.0,8.0,78,0.00,,,0.91,meteohub,2013-06-13 20:32:00,
2013-06-13 16:37:00,66.9,60.6,-100.00,WSW,254,5.0,10.0,80,0.00,,,0.91,meteohub,2013-06-13 20:37:00,
2013-06-13 16:42:00,67.1,60.1,-100.00,WSW,248,1.0,10.0,78,0.00,,,0.91,meteohub,2013-06-13 20:42:00,
2013-06-13 16:47:00,67.1,59.4,-100.00,South,188,2.0,10.0,76,0.00,,,0.91,meteohub,2013-06-13 20:47:00,
2013-06-13 16:52:00,67.1,60.1,-100.00,WSW,245,2.0,8.0,78,0.00,,,0.91,meteohub,2013-06-13 20:52:00,
2013-06-13 16:57:00,66.9,59.2,-100.00,West,262,2.0,7.0,76,0.00,,,0.91,meteohub,2013-06-13 20:57:00,
2013-06-13 17:02:00,66.7,59.4,-100.00,WNW,297,2.0,8.0,77,0.00,,,0.91,meteohub,2013-06-13 21:02:00,
2013-06-13 17:06:00,67.1,59.7,-100.00,East,84,1.0,8.0,77,0.00,,,0.91,meteohub,2013-06-13 21:06:00,
2013-06-13 17:11:00,67.5,59.5,-100.00,East,93,3.0,8.0,76,0.00,,,0.91,meteohub,2013-06-13 21:11:00,
2013-06-13 17:16:00,67.5,59.5,-100.00,WSW,245,2.0,11.0,76,0.00,,,0.91,meteohub,2013-06-13 21:16:00,
2013-06-13 17:21:00,67.5,59.2,-100.00,SW,218,2.0,11.0,75,0.00,,,0.91,meteohub,2013-06-13 21:21:00,
2013-06-13 17:26:00,67.6,59.0,-100.00,NNW,336,1.0,11.0,74,0.00,,,0.91,meteohub,2013-06-13 21:26:00,
2013-06-13 17:31:00,67.6,59.0,-100.00,NW,323,2.0,9.0,74,0.00,,,0.91,meteohub,2013-06-13 21:31:00,
2013-06-13 17:36:00,67.6,59.7,-100.00,WNW,299,1.0,9.0,76,0.00,,,0.91,meteohub,2013-06-13 21:36:00,
2013-06-13 17:41:00,68.0,59.7,-100.00,NNW,347,5.0,9.0,75,0.00,,,0.91,meteohub,2013-06-13 21:41:00,
2013-06-13 17:46:00,68.4,60.1,-100.00,ENE,77,2.0,9.0,75,0.00,,,0.91,meteohub,2013-06-13 21:46:00,
2013-06-13 17:51:00,68.5,58.8,-100.00,ESE,123,1.0,8.0,71,0.00,,,0.91,meteohub,2013-06-13 21:51:00,
2013-06-13 17:56:00,68.4,59.0,-100.00,WNW,296,2.0,7.0,72,0.00,,,0.91,meteohub,2013-06-13 21:56:00,
2013-06-13 18:01:00,68.4,59.0,-100.00,SSW,199,3.0,7.0,72,0.00,,,0.91,meteohub,2013-06-13 22:01:00,
2013-06-13 18:06:00,68.5,59.9,-100.00,North,355,5.0,7.0,74,0.00,,,0.91,meteohub,2013-06-13 22:06:00,
2013-06-13 18:11:00,68.7,59.0,-100.00,West,280,4.0,7.0,71,0.00,,,0.91,meteohub,2013-06-13 22:11:00,
2013-06-13 18:16:00,68.4,58.6,-100.00,NW,309,3.0,7.0,71,0.00,,,0.91,meteohub,2013-06-13 22:16:00,
2013-06-13 18:21:00,68.5,59.2,-100.00,SSE,150,1.0,6.0,72,0.00,,,0.91,meteohub,2013-06-13 22:21:00,
2013-06-13 18:26:00,68.7,58.5,-100.00,South,181,1.0,6.0,70,0.00,,,0.91,meteohub,2013-06-13 22:26:00,
2013-06-13 18:31:00,68.9,58.6,-100.00,East,81,1.0,6.0,70,0.00,,,0.91,meteohub,2013-06-13 22:31:00,
2013-06-13 18:36:00,68.7,58.1,-100.00,East,95,1.0,5.0,69,0.00,,,0.91,meteohub,2013-06-13 22:36:00,
2013-06-13 18:41:00,68.5,58.3,-100.00,SSW,213,2.0,5.0,70,0.00,,,0.91,meteohub,2013-06-13 22:41:00,
2013-06-13 18:46:00,68.5,57.2,-100.00,North,350,1.0,6.0,67,0.00,,,0.91,meteohub,2013-06-13 22:46:00,
2013-06-13 18:51:00,68.5,57.6,-100.00,NNW,329,0.0,6.0,68,0.00,,,0.91,meteohub,2013-06-13 22:51:00,
2013-06-13 18:56:00,68.5,57.2,-100.00,WNW,299,0.0,6.0,67,0.00,,,0.91,meteohub,2013-06-13 22:56:00,
2013-06-13 19:01:00,68.5,57.2,-100.00,WNW,302,0.0,5.0,67,0.00,,,0.91,meteohub,2013-06-13 23:01:00,
2013-06-13 19:06:00,68.5,57.6,-100.00,ESE,118,1.0,5.0,68,0.00,,,0.91,meteohub,2013-06-13 23:06:00,
2013-06-13 19:11:00,68.9,57.9,-100.00,SW,221,0.0,5.0,68,0.00,,,0.91,meteohub,2013-06-13 23:11:00,
2013-06-13 19:16:00,69.4,58.5,-100.00,East,86,0.0,5.0,68,0.00,,,0.91,meteohub,2013-06-13 23:16:00,
2013-06-13 19:21:00,69.6,58.1,-100.00,NNW,342,1.0,2.0,67,0.00,,,0.91,meteohub,2013-06-13 23:21:00,
2013-06-13 19:26:00,69.3,58.3,-100.00,West,266,0.0,3.0,68,0.00,,,0.91,meteohub,2013-06-13 23:26:00,
2013-06-13 19:31:00,69.1,58.5,-100.00,NNE,30,0.0,3.0,69,0.00,,,0.91,meteohub,2013-06-13 23:31:00,
2013-06-13 19:36:00,68.7,56.8,-100.00,NNW,334,0.0,3.0,66,0.00,,,0.91,meteohub,2013-06-13 23:36:00,
2013-06-13 19:41:00,67.8,56.8,-100.00,WNW,289,0.0,2.0,68,0.00,,,0.91,meteohub,2013-06-13 23:41:00,
2013-06-13 19:46:00,66.7,57.0,-100.00,WNW,287,1.0,2.0,71,0.00,,,0.91,meteohub,2013-06-13 23:46:00,
2013-06-13 19:51:00,66.0,56.7,-100.00,WNW,293,0.0,2.0,72,0.00,,,0.91,meteohub,2013-06-13 23:51:00,
2013-06-13 19:56:00,65.5,57.4,-100.00,NW,325,2.0,2.0,75,0.00,,,0.91,meteohub,2013-06-13 23:56:00,
2013-06-13 20:01:00,64.9,57.2,-100.00,NW,311,6.0,6.0,76,0.00,,,0.91,meteohub,2013-06-14 00:01:00,
2013-06-13 20:06:00,63.7,56.7,-100.00,North,5,1.0,2.0,78,0.00,,,0.91,meteohub,2013-06-14 00:06:00,
2013-06-13 20:12:00,63.0,56.7,-100.00,NE,56,0.0,7.0,80,0.00,,,0.91,meteohub,2013-06-14 00:12:00,
2013-06-13 20:17:00,62.4,56.5,-100.00,North,352,0.0,7.0,81,0.00,,,0.91,meteohub,2013-06-14 00:17:00,
2013-06-13 20:22:00,62.2,56.7,-100.00,NNW,330,1.0,5.0,82,0.00,,,0.91,meteohub,2013-06-14 00:22:00,
2013-06-13 20:27:00,62.1,56.5,-100.00,NW,314,3.0,4.0,82,0.00,,,0.91,meteohub,2013-06-14 00:27:00,
2013-06-13 20:32:00,61.9,57.0,-100.00,NNW,339,1.0,5.0,84,0.00,,,0.91,meteohub,2013-06-14 00:32:00,
2013-06-13 20:37:00,61.5,56.7,-100.00,NW,312,2.0,6.0,84,0.00,,,0.91,meteohub,2013-06-14 00:37:00,
2013-06-13 20:42:00,61.3,56.8,-100.00,NE,53,1.0,6.0,85,0.00,,,0.91,meteohub,2013-06-14 00:42:00,
2013-06-13 20:47:00,61.2,56.3,-100.00,NNW,344,0.0,6.0,84,0.00,,,0.91,meteohub,2013-06-14 00:47:00,
2013-06-13 20:52:00,61.2,56.7,-100.00,NNW,329,1.0,5.0,85,0.00,,,0.91,meteohub,2013-06-14 00:52:00,
2013-06-13 20:57:00,61.2,56.7,-100.00,North,2,0.0,3.0,85,0.00,,,0.91,meteohub,2013-06-14 00:57:00,
2013-06-13 21:02:00,61.0,56.5,-100.00,NW,316,1.0,3.0,85,0.00,,,0.91,meteohub,2013-06-14 01:02:00,
2013-06-13 21:07:00,61.0,56.5,-100.00,NW,322,0.0,2.0,85,0.00,,,0.91,meteohub,2013-06-14 01:07:00,
2013-06-13 21:12:00,61.0,56.5,-100.00,NW,311,0.0,2.0,85,0.00,,,0.91,meteohub,2013-06-14 01:12:00,
2013-06-13 21:17:00,61.0,56.5,-100.00,NW,309,0.0,2.0,85,0.00,,,0.91,meteohub,2013-06-14 01:17:00,
2013-06-13 21:22:00,61.0,56.5,-100.00,NNW,340,1.0,2.0,85,0.00,,,0.91,meteohub,2013-06-14 01:22:00,
2013-06-13 21:27:00,61.0,56.5,-100.00,North,358,1.0,2.0,85,0.00,,,0.91,meteohub,2013-06-14 01:27:00,
2013-06-13 21:32:00,61.0,56.8,-100.00,NNW,328,0.0,2.0,86,0.00,,,0.91,meteohub,2013-06-14 01:32:00,
2013-06-13 21:37:00,61.0,57.0,-100.00,WNW,298,1.0,2.0,87,0.00,,,0.91,meteohub,2013-06-14 01:37:00,
2013-06-13 21:42:00,61.0,57.4,-100.00,NNW,330,1.0,2.0,88,0.00,,,0.91,meteohub,2013-06-14 01:42:00,
2013-06-13 21:47:00,60.6,57.4,-100.00,NW,317,1.0,2.0,89,0.00,,,0.91,meteohub,2013-06-14 01:47:00,
2013-06-13 21:52:00,60.3,57.4,-100.00,North,356,0.0,3.0,90,0.01,,,0.91,meteohub,2013-06-14 01:52:00,
2013-06-13 21:57:00,60.1,57.4,-100.00,ENE,66,0.0,3.0,91,0.01,,,0.92,meteohub,2013-06-14 01:57:00,
2013-06-13 22:02:00,59.7,57.0,-100.00,North,6,0.0,2.0,91,0.01,,,0.92,meteohub,2013-06-14 02:02:00,
2013-06-13 22:07:00,59.5,57.2,-100.00,NW,306,1.0,1.0,92,0.01,,,0.92,meteohub,2013-06-14 02:07:00,
2013-06-13 22:12:00,59.4,57.4,-100.00,WNW,289,0.0,2.0,93,0.01,,,0.92,meteohub,2013-06-14 02:12:00,
2013-06-13 22:17:00,59.4,57.4,-100.00,WNW,289,0.0,2.0,93,0.01,,,0.92,meteohub,2013-06-14 02:17:00,
2013-06-13 22:22:00,59.2,57.4,-100.00,ESE,102,1.0,2.0,94,0.01,,,0.92,meteohub,2013-06-14 02:22:00,
2013-06-13 22:27:00,59.2,57.4,-100.00,ESE,102,0.0,1.0,94,0.01,,,0.92,meteohub,2013-06-14 02:27:00,
2013-06-13 22:32:00,59.2,57.4,-100.00,ESE,102,0.0,1.0,94,0.01,,,0.92,meteohub,2013-06-14 02:32:00,
2013-06-13 22:37:00,59.0,57.2,-100.00,ESE,102,0.0,1.0,94,0.01,,,0.92,meteohub,2013-06-14 02:37:00,
2013-06-13 22:42:00,59.0,57.2,-100.00,ESE,102,0.0,1.0,94,0.01,,,0.92,meteohub,2013-06-14 02:42:00,
2013-06-13 22:47:00,58.8,57.0,-100.00,ESE,102,0.0,1.0,94,0.02,,,0.93,meteohub,2013-06-14 02:47:00,
2013-06-13 22:52:00,58.8,57.0,-100.00,ESE,102,0.0,1.0,94,0.01,,,0.93,meteohub,2013-06-14 02:52:00,
2013-06-13 22:57:00,59.0,57.2,-100.00,ESE,102,0.0,1.0,94,0.01,,,0.93,meteohub,2013-06-14 02:57:00,
2013-06-13 23:02:00,59.0,57.6,-100.00,ESE,102,0.0,0.0,95,0.01,,,0.93,meteohub,2013-06-14 03:02:00,
2013-06-13 23:07:00,59.0,57.6,-100.00,WSW,258,0.0,0.0,95,0.01,,,0.93,meteohub,2013-06-14 03:07:00,
2013-06-13 23:12:00,59.0,57.6,-100.00,WSW,258,0.0,1.0,95,0.01,,,0.93,meteohub,2013-06-14 03:12:00,
2013-06-13 23:17:00,59.0,57.6,-100.00,West,275,0.0,1.0,95,0.01,,,0.93,meteohub,2013-06-14 03:17:00,
2013-06-13 23:22:00,59.2,58.1,-100.00,WNW,282,0.0,1.0,96,0.01,,,0.93,meteohub,2013-06-14 03:22:00,
2013-06-13 23:27:00,59.2,58.1,-100.00,WNW,283,2.0,2.0,96,0.01,,,0.93,meteohub,2013-06-14 03:27:00,
2013-06-13 23:32:00,59.2,58.1,-100.00,West,269,0.0,1.0,96,0.01,,,0.93,meteohub,2013-06-14 03:32:00,
2013-06-13 23:37:00,59.0,57.9,-100.00,West,281,1.0,3.0,96,0.01,,,0.93,meteohub,2013-06-14 03:37:00,
2013-06-13 23:43:00,58.8,57.7,-100.00,West,280,0.0,3.0,96,0.00,,,0.93,meteohub,2013-06-14 03:43:00,
2013-06-13 23:47:00,58.6,57.2,-100.00,WSW,258,1.0,2.0,95,0.00,,,0.93,meteohub,2013-06-14 03:47:00,
2013-06-13 23:53:00,58.5,57.0,-100.00,West,265,0.0,3.0,95,0.00,,,0.93,meteohub,2013-06-14 03:53:00,
2013-06-13 23:58:00,58.3,57.2,-100.00,West,272,0.0,3.0,96,0.00,,,0.93,meteohub,2013-06-14 03:58:00,